Time;durP1;ratioP1;P1;durP2;ratioP2;P2;SDS_P1;SDS_P2;PMS_P1;PMS_P2;Temp;Humidity;BMP_temperature;BMP_pressure;BME280_temperature;BME280_humidity;BME280_pressure;Samples;Min_cycle;Max_cycle;Signal;HPM_P1;HPM_P2
2021/07/30 00:01:08;;;;;;;5.83;5.30;;;12.70;99.90;;;;;;5048691;28;20233;-73
2021/07/30 00:03:33;;;;;;;6.00;4.93;;;12.70;99.90;;;;;;5047924;28;20202;-72
2021/07/30 00:05:59;;;;;;;5.33;4.83;;;12.90;99.90;;;;;;5045620;28;20191;-73
2021/07/30 00:08:24;;;;;;;5.70;5.20;;;12.70;99.90;;;;;;5040868;28;20578;-73
2021/07/30 00:10:54;;;;;;;5.73;5.23;;;12.70;99.90;;;;;;5047111;28;20236;-73
2021/07/30 00:13:20;;;;;;;6.00;5.50;;;12.80;99.90;;;;;;5049219;28;20191;-73
2021/07/30 00:15:46;;;;;;;6.40;5.80;;;12.70;99.90;;;;;;5045094;28;20445;-73
2021/07/30 00:18:11;;;;;;;5.80;5.30;;;12.40;99.90;;;;;;5052111;28;20515;-73
2021/07/30 00:20:37;;;;;;;5.37;4.87;;;12.60;99.90;;;;;;5051974;28;20282;-72
2021/07/30 00:23:02;;;;;;;5.67;5.07;;;12.60;99.90;;;;;;5047496;28;20179;-73
2021/07/30 00:25:28;;;;;;;4.90;4.50;;;12.50;99.90;;;;;;5045046;28;20215;-73
2021/07/30 00:27:54;;;;;;;5.90;5.40;;;12.50;99.90;;;;;;5048257;28;20205;-73
2021/07/30 00:30:19;;;;;;;6.30;5.77;;;12.60;99.90;;;;;;5051869;28;20655;-74
2021/07/30 00:32:45;;;;;;;6.03;5.43;;;12.50;99.90;;;;;;5052144;28;20197;-72
2021/07/30 00:35:10;;;;;;;6.30;5.53;;;12.40;99.90;;;;;;5045642;28;20214;-72
2021/07/30 00:37:39;;;;;;;7.20;5.57;;;12.40;99.90;;;;;;5049433;28;20182;-73
2021/07/30 00:40:07;;;;;;;6.13;5.50;;;12.60;99.90;;;;;;5045817;28;20190;-74
2021/07/30 00:42:32;;;;;;;6.77;5.70;;;12.70;99.90;;;;;;5034818;28;20467;-72
2021/07/30 00:44:59;;;;;;;6.37;5.77;;;12.50;99.90;;;;;;5047947;28;20849;-73
2021/07/30 00:47:29;;;;;;;6.40;5.83;;;12.50;99.90;;;;;;5051529;28;20190;-73
2021/07/30 00:49:56;;;;;;;5.90;5.27;;;12.60;99.90;;;;;;5048745;28;20445;-73
2021/07/30 00:52:24;;;;;;;5.80;5.20;;;12.70;99.90;;;;;;5046912;28;20433;-73
2021/07/30 00:54:50;;;;;;;5.67;5.13;;;12.30;99.90;;;;;;5047275;28;20212;-73
2021/07/30 00:57:16;;;;;;;5.40;4.30;;;12.30;99.90;;;;;;5049358;28;20433;-73
2021/07/30 00:59:43;;;;;;;5.63;5.13;;;12.40;99.90;;;;;;5051234;28;20447;-73
2021/07/30 01:02:08;;;;;;;6.53;5.50;;;12.20;99.90;;;;;;5034044;28;20536;-72
2021/07/30 01:04:34;;;;;;;6.07;5.10;;;12.50;99.90;;;;;;5030189;28;20827;-75
2021/07/30 01:06:59;;;;;;;8.00;5.60;;;12.30;99.90;;;;;;5028248;28;20195;-73
2021/07/30 01:09:25;;;;;;;5.80;5.20;;;12.40;99.90;;;;;;5027936;28;20187;-74
2021/07/30 01:11:51;;;;;;;6.40;5.80;;;12.30;99.90;;;;;;5043918;28;20190;-72
2021/07/30 01:14:16;;;;;;;5.60;4.70;;;12.20;99.90;;;;;;5051270;28;20195;-74
2021/07/30 01:16:42;;;;;;;6.60;5.53;;;12.30;99.90;;;;;;5051053;28;20204;-74
2021/07/30 01:19:20;;;;;;;6.00;5.40;;;12.20;99.90;;;;;;5046918;28;20176;-72
2021/07/30 01:21:47;;;;;;;6.00;5.40;;;12.30;99.90;;;;;;5041188;28;20333;-74
2021/07/30 01:24:13;;;;;;;8.70;5.40;;;12.20;99.90;;;;;;5046359;28;20456;-73
2021/07/30 01:26:39;;;;;;;5.00;4.60;;;12.00;99.90;;;;;;5050830;28;20444;-72
2021/07/30 01:29:04;;;;;;;5.93;5.38;;;12.10;99.90;;;;;;5049545;28;20413;-72
2021/07/30 01:31:30;;;;;;;6.83;5.57;;;12.20;99.90;;;;;;5044328;28;20225;-73
2021/07/30 01:33:56;;;;;;;5.90;5.20;;;12.30;99.90;;;;;;5047946;28;20506;-73
2021/07/30 01:36:21;;;;;;;6.10;5.57;;;12.20;99.90;;;;;;5046956;28;20384;-73
2021/07/30 01:38:46;;;;;;;5.87;4.60;;;12.30;99.90;;;;;;5044973;28;20241;-73
2021/07/30 01:41:15;;;;;;;5.53;5.03;;;12.20;99.90;;;;;;5032211;28;20219;-72
2021/07/30 01:43:42;;;;;;;5.30;4.80;;;12.00;99.90;;;;;;5050607;28;20253;-73
2021/07/30 01:46:07;;;;;;;5.45;4.95;;;11.70;99.90;;;;;;5047259;28;20512;-73
2021/07/30 01:48:33;;;;;;;5.67;5.17;;;12.10;99.90;;;;;;5045658;28;20323;-72
2021/07/30 01:50:59;;;;;;;6.10;5.40;;;11.70;99.90;;;;;;5044413;28;20181;-72
2021/07/30 01:53:24;;;;;;;5.60;5.10;;;11.90;99.90;;;;;;5045402;28;20178;-73
2021/07/30 01:55:50;;;;;;;5.70;5.20;;;12.00;99.90;;;;;;5030094;28;20181;-73
2021/07/30 01:58:15;;;;;;;5.63;5.13;;;12.00;99.90;;;;;;5036347;28;20194;-73
2021/07/30 02:00:41;;;;;;;5.57;5.07;;;11.90;99.90;;;;;;5047299;28;20264;-73
2021/07/30 02:03:06;;;;;;;5.57;4.97;;;11.90;99.90;;;;;;5047283;28;20186;-74
2021/07/30 02:05:32;;;;;;;5.50;5.00;;;11.90;99.90;;;;;;5032584;28;20907;-73
2021/07/30 02:07:57;;;;;;;6.00;5.17;;;11.90;99.90;;;;;;5029516;28;20274;-73
2021/07/30 02:10:23;;;;;;;6.10;5.60;;;11.50;99.90;;;;;;5047884;28;20281;-73
2021/07/30 02:15:32;;;;;;;5.80;5.30;;;11.60;99.90;;;;;;5044587;28;20668;-73
2021/07/30 02:17:58;;;;;;;6.67;5.73;;;11.80;99.90;;;;;;5048946;28;20222;-73
2021/07/30 02:20:23;;;;;;;6.03;5.20;;;11.70;99.90;;;;;;5048304;28;20209;-73
2021/07/30 02:22:49;;;;;;;5.13;4.63;;;11.50;99.90;;;;;;5047740;28;20318;-75
2021/07/30 02:25:14;;;;;;;5.57;5.13;;;11.40;99.90;;;;;;5041793;28;20174;-73
2021/07/30 02:27:40;;;;;;;5.30;4.80;;;11.40;99.90;;;;;;5046662;28;20264;-72
2021/07/30 02:30:06;;;;;;;8.57;5.70;;;11.60;99.90;;;;;;5049775;28;20224;-72
2021/07/30 02:32:31;;;;;;;7.03;5.33;;;11.30;99.90;;;;;;5049590;28;20254;-73
2021/07/30 02:34:57;;;;;;;7.40;5.23;;;11.50;99.90;;;;;;5043277;28;20472;-74
2021/07/30 02:37:22;;;;;;;5.17;4.70;;;11.30;99.90;;;;;;5046145;28;20184;-72
2021/07/30 02:39:48;;;;;;;5.73;5.23;;;11.50;99.90;;;;;;5047120;28;20904;-74
2021/07/30 02:42:13;;;;;;;6.40;5.63;;;11.30;99.90;;;;;;5049589;28;20297;-72
2021/07/30 02:44:39;;;;;;;7.63;5.73;;;11.30;99.90;;;;;;5043969;28;20644;-72
2021/07/30 02:47:04;;;;;;;6.13;5.60;;;11.20;99.90;;;;;;5054400;28;20189;-72
2021/07/30 02:49:30;;;;;;;5.70;5.20;;;11.20;99.90;;;;;;5049421;28;20188;-72
2021/07/30 02:51:55;;;;;;;5.37;4.87;;;11.00;99.90;;;;;;5048010;28;20202;-73
2021/07/30 02:54:21;;;;;;;6.23;5.60;;;11.30;99.90;;;;;;5043698;28;20196;-72
2021/07/30 02:56:46;;;;;;;8.10;7.40;;;11.40;99.90;;;;;;5047707;28;20245;-72
2021/07/30 02:59:12;;;;;;;5.83;5.33;;;11.20;99.90;;;;;;5048483;28;20179;-72
2021/07/30 03:01:37;;;;;;;4.97;4.57;;;11.30;99.90;;;;;;5049172;28;20631;-73
2021/07/30 03:04:03;;;;;;;6.03;5.23;;;11.30;99.90;;;;;;5043624;28;20650;-73
2021/07/30 03:06:28;;;;;;;5.27;4.77;;;11.30;99.90;;;;;;5038219;28;20854;-72
2021/07/30 03:08:55;;;;;;;6.67;5.57;;;11.00;99.90;;;;;;5027645;28;20632;-73
2021/07/30 03:11:21;;;;;;;6.25;5.13;;;11.10;99.90;;;;;;5042188;28;20677;-72
2021/07/30 03:13:47;;;;;;;7.30;6.13;;;11.00;99.90;;;;;;5046514;28;20209;-73
2021/07/30 03:16:13;;;;;;;5.60;5.07;;;11.30;99.90;;;;;;5027755;28;20648;-72
2021/07/30 03:18:39;;;;;;;6.43;5.60;;;11.00;99.90;;;;;;5025902;28;20310;-73
2021/07/30 03:21:05;;;;;;;6.17;5.67;;;10.80;99.90;;;;;;5033259;28;20286;-73
2021/07/30 03:23:30;;;;;;;5.87;5.37;;;10.80;99.90;;;;;;5042995;28;20278;-72
2021/07/30 03:25:56;;;;;;;6.33;5.50;;;11.10;99.90;;;;;;5031129;28;20187;-73
2021/07/30 03:28:21;;;;;;;6.10;5.50;;;10.90;99.90;;;;;;5042138;28;20215;-72
2021/07/30 03:30:48;;;;;;;6.80;5.30;;;10.90;99.90;;;;;;5045681;28;20323;-75
2021/07/30 03:33:13;;;;;;;5.50;5.03;;;10.80;99.90;;;;;;5047632;28;20193;-72
2021/07/30 03:35:40;;;;;;;5.03;4.53;;;10.90;99.90;;;;;;5046837;28;20189;-73
2021/07/30 03:38:05;;;;;;;6.35;5.55;;;10.80;99.90;;;;;;5045212;28;20186;-73
2021/07/30 03:40:31;;;;;;;6.30;5.70;;;10.90;99.90;;;;;;5045304;28;20526;-73
2021/07/30 03:42:56;;;;;;;6.33;5.70;;;11.00;99.90;;;;;;5044710;28;20634;-73
2021/07/30 03:45:22;;;;;;;7.83;5.73;;;10.70;99.90;;;;;;5040275;28;20210;-73
2021/07/30 03:47:47;;;;;;;5.03;4.60;;;10.90;99.90;;;;;;5031602;28;20200;-73
2021/07/30 03:50:13;;;;;;;5.70;5.30;;;10.70;99.90;;;;;;5036057;28;20240;-73
2021/07/30 03:52:39;;;;;;;5.33;4.87;;;10.70;99.90;;;;;;5033238;28;20187;-73
2021/07/30 03:55:05;;;;;;;5.23;4.73;;;10.90;99.90;;;;;;5045026;28;20601;-72
2021/07/30 03:57:31;;;;;;;6.30;5.70;;;10.70;99.90;;;;;;5049302;28;20204;-72
2021/07/30 03:59:56;;;;;;;6.17;5.40;;;10.90;99.90;;;;;;5049319;28;20186;-73
2021/07/30 04:02:22;;;;;;;5.60;5.10;;;10.90;99.90;;;;;;5049436;28;20238;-74
2021/07/30 04:04:47;;;;;;;6.23;5.63;;;10.80;99.90;;;;;;5043743;28;20262;-75
2021/07/30 04:07:13;;;;;;;6.33;5.83;;;10.90;99.90;;;;;;5049360;28;20179;-72
2021/07/30 04:09:38;;;;;;;9.70;5.67;;;10.90;99.90;;;;;;5050276;28;20210;-73
2021/07/30 04:12:04;;;;;;;6.10;5.53;;;11.00;99.90;;;;;;5048641;28;20201;-72
2021/07/30 04:14:30;;;;;;;5.35;4.95;;;10.80;99.90;;;;;;5043749;28;20528;-72
2021/07/30 04:16:55;;;;;;;8.60;5.93;;;10.90;99.90;;;;;;5050895;28;20192;-72
2021/07/30 04:19:21;;;;;;;4.97;4.57;;;11.00;99.90;;;;;;5051051;28;20262;-72
2021/07/30 04:21:46;;;;;;;7.23;5.77;;;10.80;99.90;;;;;;5050873;28;20230;-74
2021/07/30 04:24:12;;;;;;;6.70;5.40;;;10.80;99.90;;;;;;5049690;28;20591;-72
2021/07/30 04:26:38;;;;;;;6.60;5.90;;;10.90;99.90;;;;;;5047858;28;20368;-73
2021/07/30 04:29:03;;;;;;;6.20;5.60;;;11.20;99.90;;;;;;5048029;28;20951;-73
2021/07/30 04:31:29;;;;;;;6.80;6.10;;;11.00;99.90;;;;;;5046653;28;20240;-71
2021/07/30 04:33:54;;;;;;;6.73;6.13;;;11.10;99.90;;;;;;5050007;28;20604;-73
2021/07/30 04:36:20;;;;;;;6.70;6.00;;;11.00;99.90;;;;;;5049044;28;20180;-74
2021/07/30 04:38:45;;;;;;;5.30;4.90;;;11.20;99.90;;;;;;5050486;28;20664;-72
2021/07/30 04:41:11;;;;;;;5.90;5.40;;;11.10;99.90;;;;;;5046683;28;21030;-73
2021/07/30 04:43:37;;;;;;;6.10;5.53;;;11.20;99.90;;;;;;5035335;28;20188;-72
2021/07/30 04:46:03;;;;;;;6.10;5.50;;;11.20;99.90;;;;;;5039527;28;20195;-72
2021/07/30 04:48:28;;;;;;;6.83;6.00;;;11.10;99.90;;;;;;5047967;28;20198;-74
2021/07/30 04:50:54;;;;;;;6.03;5.53;;;11.10;99.90;;;;;;5050760;28;20189;-72
2021/07/30 04:53:19;;;;;;;6.97;6.27;;;11.40;99.90;;;;;;5051305;28;20535;-72
2021/07/30 04:55:45;;;;;;;6.50;5.90;;;11.30;99.90;;;;;;5035202;28;20278;-73
2021/07/30 04:58:11;;;;;;;6.40;5.80;;;11.60;99.90;;;;;;5031011;28;20194;-73
2021/07/30 05:00:36;;;;;;;7.30;6.70;;;11.60;99.90;;;;;;5030209;28;20181;-77
2021/07/30 05:03:02;;;;;;;6.67;6.07;;;11.50;99.90;;;;;;5028895;28;20695;-75
2021/07/30 05:05:29;;;;;;;6.80;6.10;;;11.70;99.90;;;;;;5035924;28;20189;-74
2021/07/30 05:07:54;;;;;;;6.45;5.95;;;11.80;99.90;;;;;;5039342;28;20268;-76
2021/07/30 05:10:20;;;;;;;7.07;6.47;;;11.90;99.90;;;;;;5041214;28;20704;-76
2021/07/30 05:12:45;;;;;;;7.70;6.90;;;12.00;99.90;;;;;;5034655;28;20547;-75
2021/07/30 05:15:11;;;;;;;7.00;6.30;;;11.80;99.90;;;;;;5036710;28;20650;-76
2021/07/30 05:17:37;;;;;;;6.25;5.63;;;12.20;99.90;;;;;;5037467;28;20272;-75
2021/07/30 05:20:03;;;;;;;7.83;7.00;;;12.20;99.90;;;;;;5044066;28;20252;-74
2021/07/30 05:22:28;;;;;;;7.67;6.33;;;12.40;99.90;;;;;;5037033;28;20214;-73
2021/07/30 05:24:54;;;;;;;8.47;7.67;;;12.90;99.90;;;;;;5030155;28;20430;-73
2021/07/30 05:27:19;;;;;;;7.07;6.47;;;13.40;99.90;;;;;;5033163;28;20658;-73
2021/07/30 05:29:45;;;;;;;7.50;6.10;;;14.00;99.90;;;;;;5044454;28;20229;-76
2021/07/30 05:32:11;;;;;;;6.80;6.20;;;14.70;99.90;;;;;;5037623;28;20180;-77
2021/07/30 05:34:36;;;;;;;7.63;5.33;;;15.30;99.90;;;;;;5046501;28;20203;-76
2021/07/30 05:37:02;;;;;;;6.53;5.83;;;15.70;99.90;;;;;;5035839;28;20575;-74
2021/07/30 05:39:30;;;;;;;5.97;5.37;;;16.50;99.90;;;;;;5042500;28;20200;-72
2021/07/30 05:41:55;;;;;;;5.60;5.10;;;17.20;99.90;;;;;;5035706;28;20288;-72
2021/07/30 05:44:21;;;;;;;6.47;5.97;;;17.90;99.90;;;;;;5045248;28;20918;-72
2021/07/30 05:46:46;;;;;;;4.70;4.30;;;18.20;99.90;;;;;;5043833;28;20176;-75
2021/07/30 05:49:12;;;;;;;5.07;4.67;;;18.50;99.90;;;;;;5050433;28;20646;-72
2021/07/30 05:51:37;;;;;;;4.90;4.50;;;19.10;99.90;;;;;;5031156;28;20269;-73
2021/07/30 05:54:04;;;;;;;5.10;4.70;;;19.60;99.90;;;;;;5028758;28;20332;-72
2021/07/30 05:56:29;;;;;;;4.87;4.50;;;19.90;99.90;;;;;;5040873;28;20189;-74
2021/07/30 05:58:56;;;;;;;6.00;5.60;;;20.40;99.90;;;;;;5027314;28;20813;-72
2021/07/30 06:01:22;;;;;;;4.43;4.07;;;20.70;99.60;;;;;;5035366;28;20225;-72
2021/07/30 06:03:47;;;;;;;5.30;4.87;;;21.10;97.90;;;;;;5049652;28;20433;-74
2021/07/30 06:06:13;;;;;;;5.90;5.40;;;21.40;96.10;;;;;;5038575;28;20190;-73
2021/07/30 06:08:39;;;;;;;4.73;4.37;;;21.90;94.60;;;;;;5045493;28;20690;-73
2021/07/30 06:11:04;;;;;;;5.33;4.37;;;22.30;92.50;;;;;;5028282;28;20193;-73
2021/07/30 06:13:30;;;;;;;5.00;4.50;;;22.70;91.00;;;;;;5033013;28;20556;-74
2021/07/30 06:15:55;;;;;;;5.53;5.13;;;22.90;87.90;;;;;;5028178;28;20468;-75
2021/07/30 06:18:21;;;;;;;4.63;4.33;;;23.40;84.40;;;;;;5024534;28;20207;-72
2021/07/30 06:20:46;;;;;;;5.20;4.70;;;23.50;82.30;;;;;;5047696;28;20650;-75
2021/07/30 06:23:12;;;;;;;4.90;4.60;;;24.00;79.10;;;;;;5048874;28;20182;-73
2021/07/30 06:25:37;;;;;;;4.73;4.43;;;24.60;77.00;;;;;;5047957;28;20181;-75
2021/07/30 06:28:03;;;;;;;5.60;5.17;;;24.40;73.90;;;;;;5035115;28;20566;-73
2021/07/30 06:30:29;;;;;;;5.30;4.90;;;24.60;72.60;;;;;;5024294;28;20246;-74
2021/07/30 06:32:56;;;;;;;4.90;4.50;;;24.80;70.90;;;;;;5028217;28;20196;-74
2021/07/30 06:35:29;;;;;;;4.50;4.20;;;24.90;69.70;;;;;;5035842;28;20194;-75
2021/07/30 06:37:55;;;;;;;5.00;4.60;;;24.10;69.20;;;;;;5035884;28;20453;-72
2021/07/30 06:40:21;;;;;;;4.93;4.53;;;24.00;68.80;;;;;;5030035;28;20849;-73
2021/07/30 06:42:46;;;;;;;5.30;4.90;;;23.60;69.70;;;;;;5038995;28;20241;-73
2021/07/30 06:45:12;;;;;;;5.00;4.60;;;23.20;69.40;;;;;;5042343;28;20192;-73
2021/07/30 06:47:37;;;;;;;4.90;4.50;;;23.00;69.70;;;;;;5041018;28;20179;-74
2021/07/30 06:50:04;;;;;;;6.80;5.27;;;22.80;71.00;;;;;;5045529;28;20437;-72
2021/07/30 06:52:31;;;;;;;4.73;4.33;;;22.50;71.30;;;;;;5029321;28;20195;-74
2021/07/30 06:54:57;;;;;;;5.60;5.10;;;22.60;71.90;;;;;;5029941;28;20535;-72
2021/07/30 06:57:22;;;;;;;5.70;5.20;;;22.10;72.90;;;;;;5039508;28;20533;-74
2021/07/30 06:59:48;;;;;;;6.80;5.33;;;22.00;73.60;;;;;;5046014;28;20946;-73
2021/07/30 07:02:14;;;;;;;4.90;4.53;;;21.90;75.60;;;;;;5047069;28;20250;-74
2021/07/30 07:04:40;;;;;;;5.07;4.67;;;22.20;74.50;;;;;;5048054;28;20476;-74
2021/07/30 07:07:05;;;;;;;6.33;5.27;;;22.10;74.20;;;;;;5045157;28;20444;-72
2021/07/30 07:09:31;;;;;;;5.47;5.07;;;22.40;72.70;;;;;;5044553;28;20202;-76
2021/07/30 07:11:57;;;;;;;5.80;5.30;;;22.20;72.20;;;;;;5047050;28;20269;-72
2021/07/30 07:14:22;;;;;;;7.37;5.10;;;22.10;72.20;;;;;;5048085;28;20222;-73
2021/07/30 07:16:48;;;;;;;5.33;4.83;;;22.30;72.30;;;;;;5046127;28;20188;-74
2021/07/30 07:19:13;;;;;;;5.43;5.00;;;22.20;72.60;;;;;;5047838;28;20520;-72
2021/07/30 07:21:39;;;;;;;5.40;4.90;;;22.00;72.70;;;;;;5051269;28;20230;-73
2021/07/30 07:24:06;;;;;;;5.23;4.73;;;21.90;74.00;;;;;;5050846;28;20251;-74
2021/07/30 07:26:35;;;;;;;6.23;5.73;;;21.90;73.70;;;;;;5050931;28;20447;-75
2021/07/30 07:29:01;;;;;;;5.80;5.40;;;22.00;73.20;;;;;;5048466;28;20449;-73
2021/07/30 07:31:26;;;;;;;5.83;5.20;;;21.60;73.70;;;;;;5050748;28;20522;-73
2021/07/30 07:33:52;;;;;;;5.47;5.00;;;21.60;75.80;;;;;;5050869;28;20187;-75
2021/07/30 07:36:18;;;;;;;5.70;5.20;;;21.50;75.20;;;;;;5051592;28;20691;-74
2021/07/30 07:38:43;;;;;;;5.60;5.10;;;21.50;76.80;;;;;;5049673;28;20187;-75
2021/07/30 07:41:09;;;;;;;5.83;5.33;;;21.50;76.60;;;;;;5048888;28;20234;-74
2021/07/30 07:43:36;;;;;;;5.27;4.87;;;21.50;76.70;;;;;;5047637;28;20217;-74
2021/07/30 07:46:02;;;;;;;5.30;4.90;;;21.70;78.30;;;;;;5051724;28;20733;-74
2021/07/30 07:48:27;;;;;;;5.70;5.20;;;21.50;78.40;;;;;;5052254;28;20490;-73
2021/07/30 07:50:53;;;;;;;18.33;16.93;;;21.80;78.80;;;;;;5049042;28;20179;-75
2021/07/30 07:53:19;;;;;;;10.43;9.63;;;21.80;79.10;;;;;;5051338;28;20182;-72
2021/07/30 07:55:45;;;;;;;6.30;5.70;;;22.10;79.40;;;;;;5049936;28;20186;-74
2021/07/30 07:58:11;;;;;;;5.90;5.40;;;22.20;77.10;;;;;;5051937;28;20493;-72
2021/07/30 08:00:37;;;;;;;6.00;5.40;;;22.20;77.40;;;;;;5052840;28;21000;-74
2021/07/30 08:03:03;;;;;;;5.07;4.67;;;22.00;77.10;;;;;;5049523;28;21678;-75
2021/07/30 08:05:29;;;;;;;5.83;5.33;;;22.40;76.40;;;;;;5051364;28;20191;-71
2021/07/30 08:07:54;;;;;;;6.07;5.47;;;22.60;75.50;;;;;;5051498;28;20436;-73
2021/07/30 08:10:20;;;;;;;5.50;5.10;;;23.10;76.40;;;;;;5052329;28;20218;-72
2021/07/30 08:12:46;;;;;;;5.10;4.70;;;24.00;74.70;;;;;;5048898;28;20218;-72
2021/07/30 08:15:12;;;;;;;6.30;5.80;;;25.20;67.90;;;;;;5050057;28;20181;-71
2021/07/30 08:17:38;;;;;;;5.33;4.83;;;26.50;63.10;;;;;;5051090;28;20482;-71
2021/07/30 08:20:05;;;;;;;5.80;5.30;;;27.80;57.70;;;;;;5050616;28;20814;-72
2021/07/30 08:22:31;;;;;;;5.93;5.33;;;28.60;55.20;;;;;;5050266;28;20488;-71
2021/07/30 08:24:56;;;;;;;6.27;5.73;;;29.00;52.70;;;;;;5049419;28;20433;-73
2021/07/30 08:27:22;;;;;;;6.33;5.80;;;29.40;50.50;;;;;;5052136;28;20229;-73
2021/07/30 08:29:47;;;;;;;5.17;4.77;;;29.90;48.50;;;;;;5049456;28;20291;-73
2021/07/30 08:32:13;;;;;;;5.57;5.17;;;30.20;46.10;;;;;;5050661;28;20194;-73
2021/07/30 08:34:39;;;;;;;4.93;4.53;;;30.30;44.20;;;;;;5048532;28;20193;-73
2021/07/30 08:37:06;;;;;;;5.40;5.00;;;30.30;43.90;;;;;;5051028;28;20197;-74
2021/07/30 08:39:32;;;;;;;4.50;4.10;;;30.10;44.90;;;;;;5050155;28;20469;-70
2021/07/30 08:41:59;;;;;;;4.87;4.53;;;29.90;45.00;;;;;;5048807;28;20479;-72
2021/07/30 08:44:25;;;;;;;5.00;4.60;;;29.30;45.00;;;;;;5049634;28;20418;-73
2021/07/30 08:46:52;;;;;;;5.13;4.73;;;28.80;46.60;;;;;;5048663;28;20453;-71
2021/07/30 08:49:18;;;;;;;5.20;4.80;;;28.20;47.50;;;;;;5049727;28;20190;-71
2021/07/30 08:51:46;;;;;;;6.00;5.00;;;28.20;49.00;;;;;;5048231;28;20434;-71
2021/07/30 08:54:12;;;;;;;5.23;4.83;;;28.80;48.80;;;;;;5047955;28;20277;-72
2021/07/30 08:56:38;;;;;;;5.60;5.10;;;30.10;46.60;;;;;;5050305;28;20523;-73
2021/07/30 08:59:04;;;;;;;5.00;4.60;;;31.30;43.90;;;;;;5051465;28;20700;-72
2021/07/30 09:01:30;;;;;;;5.13;4.73;;;32.50;41.40;;;;;;5050618;28;20473;-72
2021/07/30 09:03:55;;;;;;;4.70;4.30;;;33.40;38.30;;;;;;5048132;28;20436;-72
2021/07/30 09:06:22;;;;;;;5.47;5.07;;;34.10;36.40;;;;;;5049666;28;20606;-72
2021/07/30 09:08:54;;;;;;;4.70;4.40;;;34.80;34.50;;;;;;5051081;28;20185;-74
2021/07/30 09:11:34;;;;;;;5.60;5.10;;;35.20;34.00;;;;;;5051293;28;20436;-72
2021/07/30 09:14:08;;;;;;;5.33;4.80;;;35.60;32.90;;;;;;5047369;28;20444;-71
2021/07/30 09:16:51;;;;;;;6.03;5.00;;;36.00;31.60;;;;;;5048170;28;20440;-71
2021/07/30 09:19:17;;;;;;;5.13;4.73;;;36.00;31.70;;;;;;5050866;28;20476;-73
2021/07/30 09:21:43;;;;;;;5.03;4.70;;;36.10;31.50;;;;;;5050708;28;20472;-72
2021/07/30 09:24:11;;;;;;;6.40;5.47;;;36.20;31.70;;;;;;5048272;28;20965;-72
2021/07/30 09:26:43;;;;;;;5.23;4.83;;;36.70;31.50;;;;;;5048207;28;20433;-73
2021/07/30 09:29:12;;;;;;;6.47;5.87;;;37.20;30.30;;;;;;5050238;28;20829;-72
2021/07/30 09:31:39;;;;;;;5.93;5.43;;;37.70;30.00;;;;;;5050253;28;20476;-71
2021/07/30 09:34:12;;;;;;;5.57;5.17;;;37.90;29.30;;;;;;5048508;28;20433;-71
2021/07/30 09:36:54;;;;;;;5.67;5.17;;;38.00;29.20;;;;;;5047509;28;20502;-71
2021/07/30 09:39:25;;;;;;;5.80;5.37;;;38.20;29.60;;;;;;5048804;28;20433;-71
2021/07/30 09:41:56;;;;;;;5.67;5.10;;;38.30;28.50;;;;;;5048349;28;20483;-71
2021/07/30 09:44:22;;;;;;;6.00;5.60;;;38.30;28.90;;;;;;5050979;28;20852;-73
2021/07/30 09:47:15;;;;;;;5.87;5.37;;;38.50;28.50;;;;;;5049403;28;20432;-72
2021/07/30 09:49:50;;;;;;;6.37;5.17;;;38.80;28.80;;;;;;5048196;28;20290;-72
2021/07/30 09:52:21;;;;;;;6.40;5.80;;;39.20;28.40;;;;;;5048103;28;20511;-71
2021/07/30 09:54:52;;;;;;;6.10;5.60;;;39.50;28.20;;;;;;5048065;28;20445;-72
2021/07/30 09:57:24;;;;;;;5.73;5.23;;;39.90;27.50;;;;;;5050883;28;20421;-72
2021/07/30 09:59:50;;;;;;;6.27;5.77;;;40.30;27.30;;;;;;5049203;28;20530;-73
2021/07/30 10:02:18;;;;;;;5.87;5.30;;;40.60;26.90;;;;;;5047575;28;20417;-72
2021/07/30 10:04:50;;;;;;;5.67;5.20;;;40.60;26.30;;;;;;5047570;28;20433;-72
2021/07/30 10:07:23;;;;;;;5.93;5.43;;;40.70;26.40;;;;;;5049369;28;20440;-71
2021/07/30 10:12:26;;;;;;;6.87;5.30;;;40.40;26.60;;;;;;5049997;28;20846;-71
2021/07/30 10:14:53;;;;;;;5.63;5.23;;;40.10;26.50;;;;;;5046096;28;20462;-71
2021/07/30 10:17:32;;;;;;;8.23;6.30;;;40.30;26.40;;;;;;5048906;28;20433;-71
2021/07/30 10:20:01;;;;;;;6.37;5.93;;;40.80;26.80;;;;;;5028552;28;20579;-72
2021/07/30 10:22:40;;;;;;;6.57;6.17;;;40.70;27.00;;;;;;5030106;28;20452;-72
2021/07/30 10:25:08;;;;;;;7.80;7.20;;;40.40;26.50;;;;;;5036025;28;20439;-72
2021/07/30 10:27:39;;;;;;;6.90;6.40;;;39.80;27.10;;;;;;5048861;28;20490;-74
2021/07/30 10:30:15;;;;;;;6.33;5.83;;;39.80;27.70;;;;;;5047270;28;21076;-71
2021/07/30 10:32:47;;;;;;;6.77;6.27;;;40.20;28.00;;;;;;5036049;28;20501;-73
2021/07/30 10:35:14;;;;;;;5.80;5.40;;;40.80;27.10;;;;;;5043783;28;20437;-74
2021/07/30 10:37:45;;;;;;;6.17;5.67;;;40.40;27.20;;;;;;5045276;28;20445;-72
2021/07/30 10:40:19;;;;;;;6.00;5.50;;;39.80;27.50;;;;;;5043389;28;20438;-72
2021/07/30 10:43:07;;;;;;;5.93;5.53;;;40.00;27.40;;;;;;5039265;28;20441;-74
2021/07/30 10:45:37;;;;;;;5.93;5.43;;;40.80;26.70;;;;;;5049436;28;20516;-73
2021/07/30 10:48:14;;;;;;;6.03;5.63;;;42.00;25.90;;;;;;5046048;28;20437;-74
2021/07/30 10:50:47;;;;;;;5.70;5.30;;;41.30;25.90;;;;;;5046813;28;20798;-72
2021/07/30 10:53:34;;;;;;;6.53;6.03;;;40.80;26.50;;;;;;5041466;28;20849;-72
2021/07/30 10:56:07;;;;;;;6.50;6.00;;;40.30;26.70;;;;;;5043115;28;20826;-74
2021/07/30 10:58:45;;;;;;;6.00;5.53;;;41.00;26.90;;;;;;5044422;28;20452;-73
2021/07/30 11:01:11;;;;;;;6.53;6.00;;;41.10;25.80;;;;;;5043896;28;20925;-72
2021/07/30 11:03:49;;;;;;;5.80;5.40;;;40.30;25.90;;;;;;5043744;28;20444;-71
2021/07/30 11:06:26;;;;;;;5.97;5.47;;;39.10;27.40;;;;;;5048260;28;20491;-76
2021/07/30 11:09:00;;;;;;;5.80;5.40;;;38.90;28.70;;;;;;5046275;28;20528;-72
2021/07/30 11:11:42;;;;;;;6.53;6.03;;;39.80;28.80;;;;;;5046879;28;20571;-75
2021/07/30 11:14:13;;;;;;;8.57;7.50;;;40.60;27.00;;;;;;5046082;28;20452;-71
2021/07/30 11:16:57;;;;;;;6.10;5.60;;;40.40;25.90;;;;;;5033562;28;20496;-72
2021/07/30 11:19:25;;;;;;;6.30;5.80;;;39.70;26.60;;;;;;5038834;28;20437;-72
2021/07/30 11:21:52;;;;;;;6.63;6.13;;;39.00;27.80;;;;;;5046435;28;20448;-72
2021/07/30 11:24:18;;;;;;;6.63;6.13;;;39.70;28.30;;;;;;5047763;28;20476;-71
2021/07/30 11:26:44;;;;;;;5.63;5.23;;;40.90;27.80;;;;;;5046717;28;20464;-72
2021/07/30 11:29:21;;;;;;;6.43;6.00;;;42.10;26.20;;;;;;5044174;28;20441;-71
2021/07/30 11:31:55;;;;;;;6.03;5.63;;;42.90;24.80;;;;;;5046433;28;20492;-72
2021/07/30 11:34:31;;;;;;;6.70;6.20;;;43.20;24.10;;;;;;5048262;28;20961;-71
2021/07/30 11:37:08;;;;;;;7.00;6.43;;;42.40;23.90;;;;;;5046449;28;20437;-71
2021/07/30 11:39:48;;;;;;;6.93;6.40;;;41.30;25.40;;;;;;5044098;28;21215;-72
2021/07/30 11:42:30;;;;;;;8.40;7.70;;;40.80;26.80;;;;;;5046817;28;20840;-73
2021/07/30 11:44:59;;;;;;;7.00;6.30;;;41.00;26.80;;;;;;5046594;28;20433;-75
2021/07/30 11:47:27;;;;;;;6.70;6.20;;;40.70;26.40;;;;;;5048776;28;20444;-73
2021/07/30 11:50:20;;;;;;;6.13;5.63;;;39.80;26.80;;;;;;5044710;28;20432;-71
2021/07/30 11:52:46;;;;;;;6.90;6.30;;;40.00;28.00;;;;;;5044660;28;20538;-71
2021/07/30 11:55:16;;;;;;;6.90;6.30;;;41.20;27.50;;;;;;5048006;28;20490;-72
2021/07/30 11:57:43;;;;;;;6.40;5.90;;;42.40;25.80;;;;;;5048780;28;20440;-72
2021/07/30 12:00:08;;;;;;;6.60;6.10;;;43.60;26.60;;;;;;5045216;28;20479;-71
2021/07/30 12:02:34;;;;;;;6.77;6.37;;;44.70;24.10;;;;;;5047599;28;20430;-72
2021/07/30 12:04:59;;;;;;;6.23;5.80;;;45.30;22.70;;;;;;5048748;28;20649;-73
2021/07/30 12:07:36;;;;;;;6.80;6.30;;;45.80;21.80;;;;;;5051324;28;20195;-71
2021/07/30 12:10:05;;;;;;;6.80;6.30;;;45.70;21.50;;;;;;5048993;28;20249;-71
2021/07/30 12:12:41;;;;;;;7.47;6.77;;;44.40;21.70;;;;;;5048228;28;20477;-73
2021/07/30 12:15:08;;;;;;;8.20;7.40;;;43.20;24.00;;;;;;5048654;28;20447;-71
2021/07/30 12:17:34;;;;;;;7.10;6.60;;;41.90;24.40;;;;;;5048511;28;20437;-71
2021/07/30 12:20:05;;;;;;;7.30;6.80;;;40.20;25.50;;;;;;5051054;28;20428;-71
2021/07/30 12:22:46;;;;;;;8.23;7.10;;;39.00;27.80;;;;;;5050766;28;20432;-72
2021/07/30 12:25:17;;;;;;;8.10;7.47;;;38.00;29.20;;;;;;5045735;28;20955;-71
2021/07/30 12:27:43;;;;;;;7.60;7.00;;;37.10;30.10;;;;;;5047812;28;21037;-73
2021/07/30 12:30:25;;;;;;;7.73;7.03;;;36.40;31.20;;;;;;5047665;28;20479;-71
2021/07/30 12:32:50;;;;;;;8.13;7.53;;;35.50;32.50;;;;;;5048788;28;20481;-71
2021/07/30 12:35:18;;;;;;;7.50;6.90;;;34.90;34.00;;;;;;5051070;28;20440;-72
2021/07/30 12:38:15;;;;;;;7.43;6.83;;;34.30;34.90;;;;;;5051160;28;20201;-74
2021/07/30 12:40:41;;;;;;;7.23;6.57;;;33.90;35.50;;;;;;5031324;28;20817;-71
2021/07/30 12:43:16;;;;;;;7.67;7.07;;;34.20;36.80;;;;;;5048778;28;20428;-71
2021/07/30 12:45:47;;;;;;;6.93;6.33;;;35.20;36.00;;;;;;5050068;28;20420;-71
2021/07/30 12:48:17;;;;;;;9.73;7.93;;;35.70;35.30;;;;;;5050172;28;20455;-71
2021/07/30 12:50:43;;;;;;;7.90;7.30;;;36.70;34.70;;;;;;5050768;28;21242;-70
2021/07/30 12:53:11;;;;;;;6.97;6.47;;;36.90;31.70;;;;;;5050644;28;20480;-72